sensor_id;sensor_type;location;lat;lon;timestamp;P1;durP1;ratioP1;P2;durP2;ratioP2
68509;SDS011;55512;50.102;19.958;2023-04-24T00:00:01;14.00;;;9.40;;
68509;SDS011;55512;50.102;19.958;2023-04-24T00:02:30;15.60;;;8.70;;
68509;SDS011;55512;50.102;19.958;2023-04-24T00:04:57;13.60;;;8.60;;
68509;SDS011;55512;50.102;19.958;2023-04-24T00:07:30;13.10;;;8.10;;
68509;SDS011;55512;50.102;19.958;2023-04-24T00:09:56;10.80;;;8.10;;
68509;SDS011;55512;50.102;19.958;2023-04-24T00:12:21;14.30;;;7.90;;
68509;SDS011;55512;50.102;19.958;2023-04-24T00:14:47;11.80;;;8.30;;
68509;SDS011;55512;50.102;19.958;2023-04-24T00:17:12;13.60;;;8.60;;
68509;SDS011;55512;50.102;19.958;2023-04-24T00:19:38;12.50;;;8.60;;
68509;SDS011;55512;50.102;19.958;2023-04-24T00:22:04;14.50;;;8.60;;
68509;SDS011;55512;50.102;19.958;2023-04-24T00:24:29;14.00;;;8.90;;
68509;SDS011;55512;50.102;19.958;2023-04-24T00:26:55;14.00;;;8.70;;
68509;SDS011;55512;50.102;19.958;2023-04-24T00:29:20;12.60;;;7.80;;
68509;SDS011;55512;50.102;19.958;2023-04-24T00:31:45;11.00;;;6.80;;
68509;SDS011;55512;50.102;19.958;2023-04-24T00:34:11;12.70;;;7.80;;
68509;SDS011;55512;50.102;19.958;2023-04-24T00:36:37;15.20;;;8.70;;
68509;SDS011;55512;50.102;19.958;2023-04-24T00:39:03;14.20;;;8.30;;
68509;SDS011;55512;50.102;19.958;2023-04-24T00:41:29;12.50;;;8.80;;
68509;SDS011;55512;50.102;19.958;2023-04-24T00:43:55;12.10;;;8.20;;
68509;SDS011;55512;50.102;19.958;2023-04-24T00:46:21;15.90;;;9.60;;
68509;SDS011;55512;50.102;19.958;2023-04-24T00:48:46;15.40;;;8.70;;
68509;SDS011;55512;50.102;19.958;2023-04-24T00:51:12;15.20;;;9.00;;
68509;SDS011;55512;50.102;19.958;2023-04-24T00:53:37;13.40;;;8.70;;
68509;SDS011;55512;50.102;19.958;2023-04-24T00:56:04;14.50;;;9.30;;
68509;SDS011;55512;50.102;19.958;2023-04-24T00:58:30;15.60;;;9.20;;
68509;SDS011;55512;50.102;19.958;2023-04-24T01:00:57;13.30;;;9.30;;
68509;SDS011;55512;50.102;19.958;2023-04-24T01:03:26;13.70;;;8.60;;
68509;SDS011;55512;50.102;19.958;2023-04-24T01:05:55;14.70;;;9.40;;
68509;SDS011;55512;50.102;19.958;2023-04-24T01:08:23;13.50;;;8.60;;
68509;SDS011;55512;50.102;19.958;2023-04-24T01:10:51;13.00;;;8.70;;
68509;SDS011;55512;50.102;19.958;2023-04-24T01:13:20;14.00;;;9.30;;
68509;SDS011;55512;50.102;19.958;2023-04-24T01:15:46;12.50;;;8.50;;
68509;SDS011;55512;50.102;19.958;2023-04-24T01:18:13;15.20;;;9.00;;
68509;SDS011;55512;50.102;19.958;2023-04-24T01:20:42;13.00;;;8.80;;
68509;SDS011;55512;50.102;19.958;2023-04-24T01:23:10;14.20;;;8.60;;
68509;SDS011;55512;50.102;19.958;2023-04-24T01:25:36;15.00;;;8.70;;
68509;SDS011;55512;50.102;19.958;2023-04-24T01:28:02;12.80;;;8.00;;
68509;SDS011;55512;50.102;19.958;2023-04-24T01:30:30;13.50;;;8.50;;
68509;SDS011;55512;50.102;19.958;2023-04-24T01:32:56;13.40;;;7.50;;
68509;SDS011;55512;50.102;19.958;2023-04-24T01:35:22;15.00;;;8.70;;
68509;SDS011;55512;50.102;19.958;2023-04-24T01:37:47;14.40;;;8.70;;
68509;SDS011;55512;50.102;19.958;2023-04-24T01:40:13;15.50;;;9.40;;
68509;SDS011;55512;50.102;19.958;2023-04-24T01:42:41;16.20;;;8.70;;
68509;SDS011;55512;50.102;19.958;2023-04-24T01:45:10;13.50;;;8.10;;
68509;SDS011;55512;50.102;19.958;2023-04-24T01:47:38;13.80;;;8.60;;
68509;SDS011;55512;50.102;19.958;2023-04-24T01:50:05;13.60;;;8.50;;
68509;SDS011;55512;50.102;19.958;2023-04-24T01:52:31;14.20;;;8.60;;
68509;SDS011;55512;50.102;19.958;2023-04-24T01:55:03;12.90;;;8.70;;
68509;SDS011;55512;50.102;19.958;2023-04-24T01:57:32;14.70;;;9.30;;
68509;SDS011;55512;50.102;19.958;2023-04-24T01:59:59;16.30;;;8.90;;
68509;SDS011;55512;50.102;19.958;2023-04-24T02:02:24;14.10;;;9.10;;
68509;SDS011;55512;50.102;19.958;2023-04-24T02:04:53;12.20;;;8.10;;
68509;SDS011;55512;50.102;19.958;2023-04-24T02:07:19;14.20;;;9.10;;
68509;SDS011;55512;50.102;19.958;2023-04-24T02:09:45;12.50;;;8.80;;
68509;SDS011;55512;50.102;19.958;2023-04-24T02:12:10;13.30;;;9.20;;
68509;SDS011;55512;50.102;19.958;2023-04-24T02:14:36;17.90;;;9.50;;
68509;SDS011;55512;50.102;19.958;2023-04-24T02:17:01;12.70;;;8.60;;
68509;SDS011;55512;50.102;19.958;2023-04-24T02:19:26;15.00;;;9.00;;
68509;SDS011;55512;50.102;19.958;2023-04-24T02:21:52;14.80;;;9.30;;
68509;SDS011;55512;50.102;19.958;2023-04-24T02:24:17;13.90;;;8.80;;
68509;SDS011;55512;50.102;19.958;2023-04-24T02:26:43;14.70;;;8.70;;
68509;SDS011;55512;50.102;19.958;2023-04-24T02:29:08;11.00;;;7.60;;
68509;SDS011;55512;50.102;19.958;2023-04-24T02:31:34;12.50;;;8.20;;
68509;SDS011;55512;50.102;19.958;2023-04-24T02:33:59;11.70;;;7.00;;
68509;SDS011;55512;50.102;19.958;2023-04-24T02:36:25;12.50;;;7.50;;
68509;SDS011;55512;50.102;19.958;2023-04-24T02:38:50;12.90;;;9.70;;
68509;SDS011;55512;50.102;19.958;2023-04-24T02:41:16;14.90;;;8.00;;
68509;SDS011;55512;50.102;19.958;2023-04-24T02:43:41;15.10;;;7.10;;
68509;SDS011;55512;50.102;19.958;2023-04-24T02:46:06;10.40;;;7.20;;
68509;SDS011;55512;50.102;19.958;2023-04-24T02:48:32;11.40;;;7.60;;
68509;SDS011;55512;50.102;19.958;2023-04-24T02:50:57;14.30;;;7.60;;
68509;SDS011;55512;50.102;19.958;2023-04-24T02:53:23;12.80;;;7.70;;
68509;SDS011;55512;50.102;19.958;2023-04-24T02:55:49;12.70;;;7.90;;
68509;SDS011;55512;50.102;19.958;2023-04-24T02:58:14;11.30;;;7.20;;
68509;SDS011;55512;50.102;19.958;2023-04-24T03:00:40;11.00;;;6.50;;
68509;SDS011;55512;50.102;19.958;2023-04-24T03:03:05;12.10;;;7.00;;
68509;SDS011;55512;50.102;19.958;2023-04-24T03:05:32;10.60;;;6.60;;
68509;SDS011;55512;50.102;19.958;2023-04-24T03:07:57;11.80;;;6.70;;
68509;SDS011;55512;50.102;19.958;2023-04-24T03:10:22;11.30;;;6.70;;
68509;SDS011;55512;50.102;19.958;2023-04-24T03:12:48;12.40;;;6.60;;
68509;SDS011;55512;50.102;19.958;2023-04-24T03:15:15;10.20;;;6.40;;
68509;SDS011;55512;50.102;19.958;2023-04-24T03:17:40;11.30;;;7.30;;
68509;SDS011;55512;50.102;19.958;2023-04-24T03:20:07;11.30;;;6.00;;
68509;SDS011;55512;50.102;19.958;2023-04-24T03:22:33;11.30;;;6.50;;
68509;SDS011;55512;50.102;19.958;2023-04-24T03:24:59;9.10;;;6.00;;
68509;SDS011;55512;50.102;19.958;2023-04-24T03:27:25;12.20;;;6.70;;
68509;SDS011;55512;50.102;19.958;2023-04-24T03:29:51;13.00;;;6.10;;
68509;SDS011;55512;50.102;19.958;2023-04-24T03:32:23;9.90;;;6.40;;
68509;SDS011;55512;50.102;19.958;2023-04-24T03:34:49;10.20;;;6.00;;
68509;SDS011;55512;50.102;19.958;2023-04-24T03:37:16;10.20;;;6.30;;
68509;SDS011;55512;50.102;19.958;2023-04-24T03:39:42;10.90;;;6.20;;
68509;SDS011;55512;50.102;19.958;2023-04-24T03:42:08;12.10;;;6.50;;
68509;SDS011;55512;50.102;19.958;2023-04-24T03:44:34;11.60;;;6.60;;
68509;SDS011;55512;50.102;19.958;2023-04-24T03:47:00;12.30;;;6.60;;
68509;SDS011;55512;50.102;19.958;2023-04-24T03:49:26;11.60;;;6.80;;
68509;SDS011;55512;50.102;19.958;2023-04-24T03:51:51;11.70;;;7.10;;
68509;SDS011;55512;50.102;19.958;2023-04-24T03:54:20;10.80;;;6.70;;
68509;SDS011;55512;50.102;19.958;2023-04-24T03:56:46;14.00;;;6.80;;
68509;SDS011;55512;50.102;19.958;2023-04-24T03:59:11;10.90;;;6.30;;
68509;SDS011;55512;50.102;19.958;2023-04-24T04:01:38;12.40;;;6.90;;
68509;SDS011;55512;50.102;19.958;2023-04-24T04:04:05;13.10;;;7.10;;
68509;SDS011;55512;50.102;19.958;2023-04-24T04:06:30;12.70;;;7.00;;
68509;SDS011;55512;50.102;19.958;2023-04-24T04:08:56;15.50;;;6.80;;
68509;SDS011;55512;50.102;19.958;2023-04-24T04:11:23;15.70;;;8.10;;
68509;SDS011;55512;50.102;19.958;2023-04-24T04:13:48;16.90;;;8.30;;
68509;SDS011;55512;50.102;19.958;2023-04-24T04:16:14;18.00;;;7.40;;
68509;SDS011;55512;50.102;19.958;2023-04-24T04:18:42;16.40;;;7.60;;
68509;SDS011;55512;50.102;19.958;2023-04-24T04:21:07;14.40;;;7.70;;
68509;SDS011;55512;50.102;19.958;2023-04-24T04:23:33;19.00;;;8.20;;
68509;SDS011;55512;50.102;19.958;2023-04-24T04:25:58;16.30;;;8.70;;
68509;SDS011;55512;50.102;19.958;2023-04-24T04:28:25;14.70;;;7.00;;
68509;SDS011;55512;50.102;19.958;2023-04-24T04:30:51;22.20;;;8.60;;
68509;SDS011;55512;50.102;19.958;2023-04-24T04:33:21;24.20;;;8.40;;
68509;SDS011;55512;50.102;19.958;2023-04-24T04:35:47;20.20;;;8.20;;
68509;SDS011;55512;50.102;19.958;2023-04-24T04:38:17;21.70;;;8.60;;
68509;SDS011;55512;50.102;19.958;2023-04-24T04:40:44;32.70;;;10.20;;
68509;SDS011;55512;50.102;19.958;2023-04-24T04:43:11;170.90;;;32.40;;
68509;SDS011;55512;50.102;19.958;2023-04-24T04:45:38;198.30;;;38.50;;
68509;SDS011;55512;50.102;19.958;2023-04-24T04:48:06;115.60;;;25.40;;
68509;SDS011;55512;50.102;19.958;2023-04-24T04:50:38;103.80;;;21.00;;
68509;SDS011;55512;50.102;19.958;2023-04-24T04:53:04;164.30;;;30.10;;
68509;SDS011;55512;50.102;19.958;2023-04-24T04:55:30;160.50;;;32.00;;
68509;SDS011;55512;50.102;19.958;2023-04-24T04:57:55;104.10;;;24.00;;
68509;SDS011;55512;50.102;19.958;2023-04-24T05:00:21;140.60;;;29.40;;
68509;SDS011;55512;50.102;19.958;2023-04-24T05:02:50;86.40;;;19.30;;
68509;SDS011;55512;50.102;19.958;2023-04-24T05:05:16;37.40;;;10.90;;
68509;SDS011;55512;50.102;19.958;2023-04-24T05:07:43;30.10;;;11.00;;
68509;SDS011;55512;50.102;19.958;2023-04-24T05:10:09;15.80;;;7.50;;
68509;SDS011;55512;50.102;19.958;2023-04-24T05:12:35;17.60;;;7.30;;
68509;SDS011;55512;50.102;19.958;2023-04-24T05:15:01;15.90;;;7.90;;
68509;SDS011;55512;50.102;19.958;2023-04-24T05:17:26;22.70;;;8.40;;
68509;SDS011;55512;50.102;19.958;2023-04-24T05:19:52;64.70;;;16.90;;
68509;SDS011;55512;50.102;19.958;2023-04-24T05:22:17;97.40;;;19.20;;
68509;SDS011;55512;50.102;19.958;2023-04-24T05:24:45;113.60;;;22.20;;
68509;SDS011;55512;50.102;19.958;2023-04-24T05:27:11;107.60;;;24.00;;
68509;SDS011;55512;50.102;19.958;2023-04-24T05:29:36;44.30;;;12.30;;
68509;SDS011;55512;50.102;19.958;2023-04-24T05:32:02;53.90;;;12.20;;
68509;SDS011;55512;50.102;19.958;2023-04-24T05:34:27;45.90;;;13.10;;
68509;SDS011;55512;50.102;19.958;2023-04-24T05:36:53;41.40;;;12.10;;
68509;SDS011;55512;50.102;19.958;2023-04-24T05:39:18;45.70;;;13.60;;
68509;SDS011;55512;50.102;19.958;2023-04-24T05:41:45;250.70;;;42.50;;
68509;SDS011;55512;50.102;19.958;2023-04-24T05:44:10;204.50;;;35.60;;
68509;SDS011;55512;50.102;19.958;2023-04-24T05:46:36;136.30;;;25.00;;
68509;SDS011;55512;50.102;19.958;2023-04-24T05:49:01;77.20;;;17.80;;
68509;SDS011;55512;50.102;19.958;2023-04-24T05:51:28;39.00;;;11.50;;
68509;SDS011;55512;50.102;19.958;2023-04-24T05:53:54;31.60;;;10.40;;
68509;SDS011;55512;50.102;19.958;2023-04-24T05:56:20;35.80;;;10.30;;
68509;SDS011;55512;50.102;19.958;2023-04-24T05:58:46;47.00;;;13.10;;
68509;SDS011;55512;50.102;19.958;2023-04-24T06:01:12;62.30;;;14.70;;
68509;SDS011;55512;50.102;19.958;2023-04-24T06:03:40;56.70;;;13.10;;
68509;SDS011;55512;50.102;19.958;2023-04-24T06:06:07;39.70;;;11.10;;
68509;SDS011;55512;50.102;19.958;2023-04-24T06:08:34;184.00;;;36.50;;
68509;SDS011;55512;50.102;19.958;2023-04-24T06:10:59;24.30;;;7.80;;
68509;SDS011;55512;50.102;19.958;2023-04-24T06:13:25;11.20;;;6.90;;
68509;SDS011;55512;50.102;19.958;2023-04-24T06:15:50;14.80;;;6.90;;
68509;SDS011;55512;50.102;19.958;2023-04-24T06:18:16;13.30;;;6.00;;
68509;SDS011;55512;50.102;19.958;2023-04-24T06:20:42;19.10;;;8.00;;
68509;SDS011;55512;50.102;19.958;2023-04-24T06:23:07;16.70;;;7.80;;
68509;SDS011;55512;50.102;19.958;2023-04-24T06:25:33;14.20;;;7.80;;
68509;SDS011;55512;50.102;19.958;2023-04-24T06:27:59;13.50;;;7.70;;
68509;SDS011;55512;50.102;19.958;2023-04-24T06:30:24;18.20;;;7.50;;
68509;SDS011;55512;50.102;19.958;2023-04-24T06:32:50;17.40;;;7.70;;
68509;SDS011;55512;50.102;19.958;2023-04-24T06:35:16;11.70;;;7.00;;
68509;SDS011;55512;50.102;19.958;2023-04-24T06:37:42;13.20;;;6.80;;
68509;SDS011;55512;50.102;19.958;2023-04-24T06:40:08;21.90;;;7.40;;
68509;SDS011;55512;50.102;19.958;2023-04-24T06:42:35;21.90;;;7.60;;
68509;SDS011;55512;50.102;19.958;2023-04-24T06:45:01;12.10;;;6.40;;
68509;SDS011;55512;50.102;19.958;2023-04-24T06:47:26;17.30;;;7.30;;
68509;SDS011;55512;50.102;19.958;2023-04-24T06:49:51;19.20;;;7.40;;
68509;SDS011;55512;50.102;19.958;2023-04-24T06:52:18;80.90;;;17.30;;
68509;SDS011;55512;50.102;19.958;2023-04-24T06:54:43;44.70;;;11.90;;
68509;SDS011;55512;50.102;19.958;2023-04-24T06:57:09;16.30;;;6.80;;
68509;SDS011;55512;50.102;19.958;2023-04-24T06:59:35;9.90;;;5.00;;
68509;SDS011;55512;50.102;19.958;2023-04-24T07:02:01;15.80;;;6.00;;
68509;SDS011;55512;50.102;19.958;2023-04-24T07:04:28;13.00;;;6.40;;
68509;SDS011;55512;50.102;19.958;2023-04-24T07:06:54;10.30;;;5.40;;
68509;SDS011;55512;50.102;19.958;2023-04-24T07:09:22;11.70;;;5.20;;
68509;SDS011;55512;50.102;19.958;2023-04-24T07:11:49;13.40;;;5.90;;
68509;SDS011;55512;50.102;19.958;2023-04-24T07:14:15;16.40;;;6.30;;
68509;SDS011;55512;50.102;19.958;2023-04-24T07:16:41;11.00;;;5.80;;
68509;SDS011;55512;50.102;19.958;2023-04-24T07:19:07;11.20;;;5.30;;
68509;SDS011;55512;50.102;19.958;2023-04-24T07:21:33;9.40;;;5.10;;
68509;SDS011;55512;50.102;19.958;2023-04-24T07:23:58;7.90;;;4.80;;
68509;SDS011;55512;50.102;19.958;2023-04-24T07:26:26;8.30;;;4.80;;
68509;SDS011;55512;50.102;19.958;2023-04-24T07:28:53;8.00;;;4.40;;
68509;SDS011;55512;50.102;19.958;2023-04-24T07:31:18;10.40;;;5.10;;
68509;SDS011;55512;50.102;19.958;2023-04-24T07:33:44;8.80;;;4.70;;
68509;SDS011;55512;50.102;19.958;2023-04-24T07:36:10;9.90;;;4.90;;
68509;SDS011;55512;50.102;19.958;2023-04-24T07:38:43;9.70;;;4.70;;
68509;SDS011;55512;50.102;19.958;2023-04-24T07:41:09;9.90;;;4.90;;
68509;SDS011;55512;50.102;19.958;2023-04-24T07:43:35;11.20;;;5.10;;
68509;SDS011;55512;50.102;19.958;2023-04-24T07:46:00;10.10;;;5.20;;
68509;SDS011;55512;50.102;19.958;2023-04-24T07:48:26;9.80;;;5.40;;
68509;SDS011;55512;50.102;19.958;2023-04-24T07:50:52;9.70;;;5.10;;
68509;SDS011;55512;50.102;19.958;2023-04-24T07:53:18;13.50;;;5.10;;
68509;SDS011;55512;50.102;19.958;2023-04-24T07:55:43;12.30;;;5.50;;
68509;SDS011;55512;50.102;19.958;2023-04-24T07:58:09;10.90;;;4.90;;
68509;SDS011;55512;50.102;19.958;2023-04-24T08:00:34;8.70;;;4.70;;
68509;SDS011;55512;50.102;19.958;2023-04-24T08:03:00;8.20;;;4.00;;
68509;SDS011;55512;50.102;19.958;2023-04-24T08:05:26;16.30;;;5.60;;
68509;SDS011;55512;50.102;19.958;2023-04-24T08:07:53;26.30;;;7.10;;
68509;SDS011;55512;50.102;19.958;2023-04-24T08:10:21;60.10;;;12.60;;
68509;SDS011;55512;50.102;19.958;2023-04-24T08:12:48;36.20;;;10.80;;
68509;SDS011;55512;50.102;19.958;2023-04-24T08:15:14;22.80;;;6.80;;
68509;SDS011;55512;50.102;19.958;2023-04-24T08:17:39;67.80;;;15.60;;
68509;SDS011;55512;50.102;19.958;2023-04-24T08:20:06;42.50;;;10.70;;
68509;SDS011;55512;50.102;19.958;2023-04-24T08:22:36;14.80;;;5.80;;
68509;SDS011;55512;50.102;19.958;2023-04-24T08:25:02;11.80;;;5.00;;
68509;SDS011;55512;50.102;19.958;2023-04-24T08:27:28;11.20;;;4.60;;
68509;SDS011;55512;50.102;19.958;2023-04-24T08:29:54;12.10;;;4.40;;
68509;SDS011;55512;50.102;19.958;2023-04-24T08:32:20;9.00;;;4.60;;
68509;SDS011;55512;50.102;19.958;2023-04-24T08:34:47;9.50;;;4.00;;
68509;SDS011;55512;50.102;19.958;2023-04-24T08:37:13;7.50;;;4.00;;
68509;SDS011;55512;50.102;19.958;2023-04-24T08:39:38;12.10;;;5.40;;
68509;SDS011;55512;50.102;19.958;2023-04-24T08:42:05;63.00;;;11.30;;
68509;SDS011;55512;50.102;19.958;2023-04-24T08:44:33;110.50;;;21.70;;
68509;SDS011;55512;50.102;19.958;2023-04-24T08:47:04;19.50;;;6.00;;
68509;SDS011;55512;50.102;19.958;2023-04-24T08:49:30;11.80;;;4.70;;
68509;SDS011;55512;50.102;19.958;2023-04-24T08:51:56;9.50;;;4.30;;
68509;SDS011;55512;50.102;19.958;2023-04-24T08:54:22;9.90;;;4.30;;
68509;SDS011;55512;50.102;19.958;2023-04-24T08:56:50;8.90;;;4.40;;
68509;SDS011;55512;50.102;19.958;2023-04-24T08:59:18;9.10;;;4.00;;
68509;SDS011;55512;50.102;19.958;2023-04-24T09:01:48;37.40;;;8.20;;
68509;SDS011;55512;50.102;19.958;2023-04-24T09:04:15;19.00;;;6.00;;
68509;SDS011;55512;50.102;19.958;2023-04-24T09:06:43;11.30;;;4.20;;
68509;SDS011;55512;50.102;19.958;2023-04-24T09:09:10;6.30;;;3.20;;
68509;SDS011;55512;50.102;19.958;2023-04-24T09:11:37;10.10;;;4.20;;
68509;SDS011;55512;50.102;19.958;2023-04-24T09:14:03;9.50;;;4.00;;
68509;SDS011;55512;50.102;19.958;2023-04-24T09:16:29;9.00;;;4.10;;
68509;SDS011;55512;50.102;19.958;2023-04-24T09:18:58;10.40;;;4.50;;
68509;SDS011;55512;50.102;19.958;2023-04-24T09:21:23;17.50;;;4.80;;
68509;SDS011;55512;50.102;19.958;2023-04-24T09:24:00;15.60;;;4.80;;
68509;SDS011;55512;50.102;19.958;2023-04-24T09:26:30;20.30;;;4.90;;
68509;SDS011;55512;50.102;19.958;2023-04-24T09:28:59;8.60;;;4.30;;
68509;SDS011;55512;50.102;19.958;2023-04-24T09:31:27;8.00;;;4.00;;
68509;SDS011;55512;50.102;19.958;2023-04-24T09:34:03;7.30;;;4.00;;
68509;SDS011;55512;50.102;19.958;2023-04-24T09:39:08;9.00;;;4.30;;
68509;SDS011;55512;50.102;19.958;2023-04-24T09:41:51;12.00;;;4.60;;
68509;SDS011;55512;50.102;19.958;2023-04-24T09:46:57;7.50;;;3.60;;
68509;SDS011;55512;50.102;19.958;2023-04-24T09:49:26;47.50;;;10.60;;
68509;SDS011;55512;50.102;19.958;2023-04-24T09:52:02;25.60;;;6.00;;
68509;SDS011;55512;50.102;19.958;2023-04-24T09:54:29;65.80;;;12.50;;
68509;SDS011;55512;50.102;19.958;2023-04-24T09:56:55;68.20;;;13.80;;
68509;SDS011;55512;50.102;19.958;2023-04-24T09:59:22;38.20;;;8.30;;
68509;SDS011;55512;50.102;19.958;2023-04-24T10:01:48;10.80;;;3.70;;
68509;SDS011;55512;50.102;19.958;2023-04-24T10:04:21;6.80;;;3.70;;
68509;SDS011;55512;50.102;19.958;2023-04-24T10:06:50;13.90;;;4.80;;
68509;SDS011;55512;50.102;19.958;2023-04-24T10:09:19;9.80;;;4.00;;
68509;SDS011;55512;50.102;19.958;2023-04-24T10:11:49;11.10;;;4.70;;
68509;SDS011;55512;50.102;19.958;2023-04-24T10:14:18;11.80;;;4.20;;
68509;SDS011;55512;50.102;19.958;2023-04-24T10:16:50;7.60;;;4.10;;
68509;SDS011;55512;50.102;19.958;2023-04-24T10:19:17;7.30;;;4.00;;
68509;SDS011;55512;50.102;19.958;2023-04-24T10:21:46;8.60;;;4.00;;
68509;SDS011;55512;50.102;19.958;2023-04-24T10:24:17;11.30;;;4.80;;
68509;SDS011;55512;50.102;19.958;2023-04-24T10:26:45;9.70;;;4.40;;
68509;SDS011;55512;50.102;19.958;2023-04-24T10:29:15;13.20;;;4.50;;
68509;SDS011;55512;50.102;19.958;2023-04-24T10:31:42;11.00;;;4.60;;
68509;SDS011;55512;50.102;19.958;2023-04-24T10:34:10;13.90;;;4.60;;
68509;SDS011;55512;50.102;19.958;2023-04-24T10:36:39;9.40;;;3.70;;
68509;SDS011;55512;50.102;19.958;2023-04-24T10:39:12;6.20;;;3.10;;
68509;SDS011;55512;50.102;19.958;2023-04-24T10:41:42;5.90;;;3.20;;
68509;SDS011;55512;50.102;19.958;2023-04-24T10:44:13;6.80;;;3.60;;
68509;SDS011;55512;50.102;19.958;2023-04-24T10:46:44;7.40;;;3.60;;
68509;SDS011;55512;50.102;19.958;2023-04-24T10:49:12;6.10;;;3.70;;
68509;SDS011;55512;50.102;19.958;2023-04-24T10:56:50;8.40;;;3.30;;
68509;SDS011;55512;50.102;19.958;2023-04-24T10:59:27;7.30;;;3.80;;
68509;SDS011;55512;50.102;19.958;2023-04-24T11:01:59;7.00;;;3.70;;
68509;SDS011;55512;50.102;19.958;2023-04-24T11:04:32;6.20;;;3.60;;
68509;SDS011;55512;50.102;19.958;2023-04-24T11:06:58;6.30;;;3.40;;
68509;SDS011;55512;50.102;19.958;2023-04-24T11:09:27;6.70;;;3.60;;
68509;SDS011;55512;50.102;19.958;2023-04-24T11:20:09;7.50;;;3.70;;
68509;SDS011;55512;50.102;19.958;2023-04-24T11:22:38;10.10;;;4.30;;
68509;SDS011;55512;50.102;19.958;2023-04-24T11:25:09;12.10;;;4.20;;
68509;SDS011;55512;50.102;19.958;2023-04-24T11:27:43;15.20;;;4.20;;
68509;SDS011;55512;50.102;19.958;2023-04-24T11:30:17;6.70;;;3.50;;
68509;SDS011;55512;50.102;19.958;2023-04-24T11:32:48;6.70;;;3.80;;
68509;SDS011;55512;50.102;19.958;2023-04-24T11:35:18;11.60;;;3.70;;
68509;SDS011;55512;50.102;19.958;2023-04-24T11:37:47;9.40;;;3.90;;
68509;SDS011;55512;50.102;19.958;2023-04-24T11:40:15;18.20;;;6.10;;
68509;SDS011;55512;50.102;19.958;2023-04-24T11:42:46;7.00;;;3.70;;
68509;SDS011;55512;50.102;19.958;2023-04-24T11:45:23;49.70;;;11.20;;
68509;SDS011;55512;50.102;19.958;2023-04-24T11:47:51;17.50;;;5.40;;
68509;SDS011;55512;50.102;19.958;2023-04-24T11:50:18;9.80;;;4.20;;
68509;SDS011;55512;50.102;19.958;2023-04-24T11:52:47;13.50;;;5.10;;
68509;SDS011;55512;50.102;19.958;2023-04-24T11:57:39;7.80;;;3.90;;
68509;SDS011;55512;50.102;19.958;2023-04-24T12:00:18;7.20;;;4.10;;
68509;SDS011;55512;50.102;19.958;2023-04-24T12:02:44;8.90;;;5.30;;
68509;SDS011;55512;50.102;19.958;2023-04-24T12:05:23;8.00;;;5.10;;
68509;SDS011;55512;50.102;19.958;2023-04-24T12:07:51;6.30;;;3.80;;
68509;SDS011;55512;50.102;19.958;2023-04-24T12:10:21;5.90;;;3.70;;
68509;SDS011;55512;50.102;19.958;2023-04-24T12:12:48;6.50;;;3.70;;
68509;SDS011;55512;50.102;19.958;2023-04-24T12:15:17;6.20;;;4.30;;
68509;SDS011;55512;50.102;19.958;2023-04-24T12:17:44;8.00;;;4.50;;
68509;SDS011;55512;50.102;19.958;2023-04-24T12:20:11;11.20;;;4.00;;
68509;SDS011;55512;50.102;19.958;2023-04-24T12:22:47;8.90;;;4.00;;
68509;SDS011;55512;50.102;19.958;2023-04-24T12:25:16;6.10;;;3.80;;
68509;SDS011;55512;50.102;19.958;2023-04-24T12:27:44;6.20;;;3.70;;
68509;SDS011;55512;50.102;19.958;2023-04-24T12:30:12;7.90;;;3.90;;
68509;SDS011;55512;50.102;19.958;2023-04-24T12:32:46;7.40;;;3.90;;
68509;SDS011;55512;50.102;19.958;2023-04-24T12:35:18;8.00;;;4.40;;
68509;SDS011;55512;50.102;19.958;2023-04-24T12:37:45;22.10;;;6.80;;
68509;SDS011;55512;50.102;19.958;2023-04-24T12:40:12;14.40;;;4.60;;
68509;SDS011;55512;50.102;19.958;2023-04-24T12:42:46;7.30;;;4.20;;
68509;SDS011;55512;50.102;19.958;2023-04-24T12:45:15;9.00;;;4.50;;
68509;SDS011;55512;50.102;19.958;2023-04-24T12:47:43;9.70;;;5.10;;
68509;SDS011;55512;50.102;19.958;2023-04-24T12:50:12;7.80;;;4.20;;
68509;SDS011;55512;50.102;19.958;2023-04-24T12:52:40;11.20;;;4.90;;
68509;SDS011;55512;50.102;19.958;2023-04-24T12:55:07;9.80;;;4.90;;
68509;SDS011;55512;50.102;19.958;2023-04-24T12:57:35;13.80;;;5.80;;
68509;SDS011;55512;50.102;19.958;2023-04-24T13:00:03;13.60;;;5.20;;
68509;SDS011;55512;50.102;19.958;2023-04-24T13:02:30;9.70;;;5.80;;
68509;SDS011;55512;50.102;19.958;2023-04-24T13:04:57;9.70;;;5.00;;
68509;SDS011;55512;50.102;19.958;2023-04-24T13:07:23;11.30;;;5.10;;
68509;SDS011;55512;50.102;19.958;2023-04-24T13:09:50;8.80;;;5.30;;
68509;SDS011;55512;50.102;19.958;2023-04-24T13:12:16;11.80;;;5.40;;
68509;SDS011;55512;50.102;19.958;2023-04-24T13:14:43;9.00;;;4.70;;
68509;SDS011;55512;50.102;19.958;2023-04-24T13:17:09;9.10;;;4.50;;
68509;SDS011;55512;50.102;19.958;2023-04-24T13:19:36;11.30;;;5.20;;
68509;SDS011;55512;50.102;19.958;2023-04-24T13:22:03;9.40;;;4.50;;
68509;SDS011;55512;50.102;19.958;2023-04-24T13:24:29;20.80;;;6.40;;
68509;SDS011;55512;50.102;19.958;2023-04-24T13:26:56;8.60;;;5.10;;
68509;SDS011;55512;50.102;19.958;2023-04-24T13:29:22;14.10;;;5.90;;
68509;SDS011;55512;50.102;19.958;2023-04-24T13:31:52;12.60;;;5.30;;
68509;SDS011;55512;50.102;19.958;2023-04-24T13:34:25;24.70;;;7.10;;
68509;SDS011;55512;50.102;19.958;2023-04-24T13:36:53;9.90;;;5.30;;
68509;SDS011;55512;50.102;19.958;2023-04-24T13:39:19;19.30;;;6.60;;
68509;SDS011;55512;50.102;19.958;2023-04-24T13:41:45;18.00;;;6.30;;
68509;SDS011;55512;50.102;19.958;2023-04-24T13:44:14;10.10;;;4.70;;
68509;SDS011;55512;50.102;19.958;2023-04-24T13:46:40;10.20;;;4.50;;
68509;SDS011;55512;50.102;19.958;2023-04-24T13:49:06;7.80;;;4.20;;
68509;SDS011;55512;50.102;19.958;2023-04-24T13:51:32;8.00;;;4.50;;
68509;SDS011;55512;50.102;19.958;2023-04-24T13:53:58;9.10;;;4.30;;
68509;SDS011;55512;50.102;19.958;2023-04-24T13:56:24;10.00;;;4.20;;
68509;SDS011;55512;50.102;19.958;2023-04-24T13:58:50;8.60;;;4.10;;
68509;SDS011;55512;50.102;19.958;2023-04-24T14:01:16;9.00;;;4.20;;
68509;SDS011;55512;50.102;19.958;2023-04-24T14:03:42;10.60;;;4.20;;
68509;SDS011;55512;50.102;19.958;2023-04-24T14:06:10;6.90;;;3.90;;
68509;SDS011;55512;50.102;19.958;2023-04-24T14:08:36;6.40;;;3.50;;
68509;SDS011;55512;50.102;19.958;2023-04-24T14:11:02;11.20;;;4.20;;
68509;SDS011;55512;50.102;19.958;2023-04-24T14:13:28;8.30;;;3.90;;
68509;SDS011;55512;50.102;19.958;2023-04-24T14:15:53;9.10;;;4.20;;
68509;SDS011;55512;50.102;19.958;2023-04-24T14:18:19;7.90;;;3.80;;
68509;SDS011;55512;50.102;19.958;2023-04-24T14:20:45;7.40;;;3.60;;
68509;SDS011;55512;50.102;19.958;2023-04-24T14:23:11;9.20;;;4.40;;
68509;SDS011;55512;50.102;19.958;2023-04-24T14:25:37;9.80;;;4.30;;
68509;SDS011;55512;50.102;19.958;2023-04-24T14:28:02;8.70;;;4.30;;
68509;SDS011;55512;50.102;19.958;2023-04-24T14:30:28;7.70;;;4.20;;
68509;SDS011;55512;50.102;19.958;2023-04-24T14:32:53;8.10;;;3.80;;
68509;SDS011;55512;50.102;19.958;2023-04-24T14:35:19;8.80;;;3.80;;
68509;SDS011;55512;50.102;19.958;2023-04-24T14:37:44;7.20;;;3.70;;
68509;SDS011;55512;50.102;19.958;2023-04-24T14:40:10;6.40;;;3.70;;
68509;SDS011;55512;50.102;19.958;2023-04-24T14:42:36;8.80;;;3.30;;